createdAt,value
2023-05-12T00:13:45.116Z,99.74
2023-05-12T00:42:46.138Z,97.49
2023-05-12T01:11:37.513Z,99.04
2023-05-12T01:40:33.185Z,99.78
2023-05-12T02:09:28.054Z,100
2023-05-12T02:38:25.030Z,100
2023-05-12T03:07:21.516Z,100
2023-05-12T03:36:24.453Z,100
2023-05-12T04:05:21.756Z,100
2023-05-12T04:34:18.056Z,100
2023-05-12T05:03:14.770Z,100
2023-05-12T05:31:51.716Z,100
2023-05-12T06:00:21.524Z,100
2023-05-12T06:29:18.190Z,100
2023-05-12T06:58:05.902Z,100
2023-05-12T07:27:01.819Z,100
2023-05-12T07:55:56.047Z,100
2023-05-12T08:24:53.145Z,100
2023-05-12T08:53:49.384Z,95.09
2023-05-12T09:22:44.562Z,94.11
2023-05-12T09:51:41.217Z,83.56
2023-05-12T10:20:31.467Z,78.13
2023-05-12T10:49:31.921Z,73.43
2023-05-12T11:18:24.995Z,74.03
2023-05-12T11:47:10.270Z,71.56
2023-05-12T12:16:08.174Z,72.27
2023-05-12T12:44:53.338Z,70.36
2023-05-12T13:13:54.924Z,76.77
2023-05-12T13:42:56.752Z,81.43
2023-05-12T14:12:05.973Z,68.98
2023-05-12T14:41:00.702Z,65.28
2023-05-12T15:10:07.451Z,67.22
2023-05-12T15:38:50.720Z,80.89
2023-05-12T16:07:38.023Z,97.86
2023-05-12T16:36:44.730Z,89.49
2023-05-12T17:05:47.708Z,90.06
2023-05-12T17:34:42.038Z,91.34
2023-05-12T18:03:30.244Z,87.03
2023-05-12T18:32:05.553Z,87.93
2023-05-12T19:01:07.448Z,88.15
2023-05-12T19:29:53.557Z,86.1
2023-05-12T19:58:55.030Z,93.87
2023-05-12T20:28:06.917Z,95.62
2023-05-12T20:57:09.781Z,93.02
2023-05-12T21:26:03.508Z,98.59
2023-05-12T21:55:05.088Z,97.49
2023-05-12T22:23:59.405Z,100
2023-05-12T22:52:58.284Z,100
2023-05-12T23:21:53.009Z,100
2023-05-12T23:50:56.466Z,100
